Latest Weather Observations for Coolangatta

IDN60801

Issued at 5:05 pm EST Wednesday 16 April 2014 (issued every 30 minutes, with the page automatically refreshed every 10 minutes)

About weather observations | Map of weather stations | Latest weather observations for NSW | Other Formats
Station Details ID: 040717 Name: COOLANGATTA Lat: -28.17 Lon: 153.51 Height: 4.0 m
Data from the previous 72 hours. | See also: Recent months at Coolangatta
Date/Time
EST
Temp
°C
App
Temp
°C
Dew
Point
Rel
Hum
%
Delta-T
°C
Wind Press
QNH
hPa
Press
MSL
hPa
Rain
since 9 am
mm
Dir
 
Spd
km/h
Gust
km/h
Spd
kts
Gust
kts
16/05:00pm 22.1 19.6 15.2 65 4.1 SSE 22 33 12 18 1014.6 - 0.2
16/04:30pm 23.2 20.2 15.8 63 4.5 SE 26 35 14 19 1014.3 - 0.2
16/04:00pm 24.7 22.9 13.3 49 6.6 S 15 20 8 11 1013.9 - 0.2
16/03:30pm 24.9 22.3 13.1 48 6.9 SSE 19 26 10 14 1013.8 - 0.2
16/03:00pm 25.3 23.1 13.2 47 7.1 S 17 22 9 12 1013.9 1013.8 0.2
16/02:30pm 25.6 23.0 13.1 46 7.3 S 19 30 10 16 1014.0 - 0.2
16/02:00pm 25.6 22.3 12.8 45 7.4 SW 22 32 12 17 1014.2 - 0.2
16/01:30pm 24.6 21.5 12.2 46 7.1 S 20 30 11 16 1014.3 - 0.2
16/01:00pm 25.6 23.2 12.8 45 7.4 SW 17 30 9 16 1014.4 - 0.2
16/12:30pm 24.9 21.9 12.5 46 7.1 SSW 20 26 11 14 1014.8 - 0.2
16/12:00pm 25.1 22.5 13.3 48 6.9 SSW 19 28 10 15 1015.2 1015.1 0.2
16/11:30am 24.5 22.3 13.4 50 6.5 SSW 17 30 9 16 1015.6 - 0.2
16/11:00am 24.1 21.5 13.3 51 6.3 SSW 19 26 10 14 1016.1 - 0.2
16/10:30am 23.6 21.9 14.6 57 5.3 SSW 17 22 9 12 1016.5 - 0.2
16/10:00am 22.8 19.9 14.1 58 5.1 S 22 30 12 16 1016.7 - 0.0
16/09:30am 22.4 20.4 14.0 59 4.9 SSW 17 28 9 15 1016.8 - 0.0
16/09:00am 21.9 20.0 14.3 62 4.4 SSW 17 20 9 11 1016.7 1016.6 0.2
16/08:30am 21.2 19.1 13.6 62 4.4 SW 17 26 9 14 1016.7 - 0.2
16/08:00am 20.3 18.2 13.5 65 3.9 SSW 17 24 9 13 1016.6 - 0.2
16/07:30am 19.6 16.8 13.3 67 3.6 SSW 20 30 11 16 1016.3 - 0.2
16/07:00am 19.1 16.3 13.3 69 3.3 SSW 20 28 11 15 1015.8 - 0.2
16/06:30am 18.4 15.5 13.0 71 3.0 SSW 20 32 11 17 1015.5 - 0.2
16/06:00am 18.4 15.2 13.0 71 3.0 SSW 22 32 12 17 1015.2 1015.1 0.2
16/05:30am 18.1 15.8 13.0 72 2.9 SSW 17 28 9 15 1015.1 - 0.2
16/05:00am 18.2 16.3 12.9 71 3.0 SSW 15 24 8 13 1014.9 - 0.2
16/04:30am 18.3 15.5 12.7 70 3.1 SSW 19 28 10 15 1015.1 - 0.2
16/04:00am 18.5 16.4 12.5 68 3.3 SSW 15 28 8 15 1015.1 - 0.2
16/03:30am 18.4 15.8 11.9 66 3.6 SW 17 24 9 13 1014.9 - 0.2
16/03:00am 18.8 16.1 11.6 63 4.0 SW 17 28 9 15 1014.8 1014.7 0.2
16/02:30am 18.6 15.8 11.2 62 4.0 SW 17 24 9 13 1014.8 - 0.2
16/02:00am 18.5 16.4 11.3 63 3.9 SW 13 20 7 11 1014.7 - 0.2
16/01:30am 18.9 16.1 11.5 62 4.1 SSW 17 24 9 13 1014.7 - 0.2
16/01:00am 18.8 16.2 12.1 65 3.7 SW 17 22 9 12 1014.9 - 0.2
16/12:30am 18.9 16.5 12.6 67 3.5 SW 17 24 9 13 1015.4 - 0.2
16/12:00am 18.9 17.0 13.1 69 3.3 SW 15 22 8 12 1015.4 1015.3 0.2
 
Date/Time
EST
Temp
°C
App
Temp
°C
Dew
Point
Rel
Hum
%
Delta-T
°C
Wind Press
QNH
hPa
Press
MSL
hPa
Rain
since 9 am
mm
Dir
 
Spd
km/h
Gust
km/h
Spd
kts
Gust
kts
15/11:30pm 18.9 17.0 13.1 69 3.3 SSW 15 20 8 11 1015.4 - 0.2
15/11:00pm 18.7 17.7 13.3 71 3.1 SW 11 17 6 9 1015.7 - 0.2
15/10:30pm 19.4 17.7 13.6 69 3.3 SSW 15 24 8 13 1016.0 - 0.2
15/10:00pm 19.2 18.0 14.0 72 3.0 SW 13 20 7 11 1016.1 - 0.2
15/09:30pm 18.7 18.3 14.2 75 2.6 SW 9 15 5 8 1016.2 - 0.2
15/09:00pm 19.0 17.9 14.3 74 2.7 SW 13 17 7 9 1016.2 1016.1 0.2
15/08:30pm 19.2 18.2 14.5 74 2.7 SW 13 19 7 10 1016.4 - 0.2
15/08:00pm 19.0 17.9 14.3 74 2.7 SW 13 17 7 9 1016.5 - 0.2
15/07:30pm 19.5 18.3 14.1 71 3.1 SW 13 20 7 11 1016.3 - 0.2
15/07:00pm 19.6 17.8 14.4 72 3.0 S 17 28 9 15 1015.9 - 0.2
15/06:30pm 19.5 17.2 14.1 71 3.1 SSW 19 30 10 16 1015.8 - 0.2
15/06:00pm 19.6 18.2 14.4 72 3.0 S 15 24 8 13 1015.5 1015.4 0.2
15/05:30pm 20.0 17.6 14.4 70 3.3 S 20 33 11 18 1015.0 - 0.2
15/05:00pm 21.0 18.0 14.9 68 3.6 SSE 24 35 13 19 1015.0 - 0.2
15/04:30pm 21.8 20.2 14.9 65 4.1 S 17 24 9 13 1014.9 - 0.2
15/04:00pm 21.9 20.5 15.5 67 3.8 S 17 24 9 13 1014.8 - 0.2
15/03:30pm 21.1 19.8 15.9 72 3.1 SSW 17 26 9 14 1014.8 - 0.2
15/03:00pm 19.8 17.7 16.3 80 2.1 SSW 22 33 12 18 1014.7 1014.6 0.2
15/02:30pm 20.9 19.3 16.1 74 2.9 S 19 26 10 14 1014.6 - 0.2
15/02:00pm 23.0 19.6 14.8 60 4.9 S 26 41 14 22 1014.4 - 0.0
15/01:30pm 23.0 19.4 14.3 58 5.1 S 26 41 14 22 1014.5 - 0.0
15/01:00pm 23.9 20.9 15.9 61 4.8 S 26 37 14 20 1014.7 - 0.0
15/12:30pm 23.6 20.6 15.9 62 4.7 S 26 39 14 21 1015.0 - 0.0
15/12:00pm 23.0 20.6 16.3 66 4.1 S 24 39 13 21 1015.5 1015.4 0.0
15/11:36am 21.6 17.2 15.2 67 3.8 S 32 50 17 27 1016.0 - 0.0
15/11:30am 22.3 18.4 15.4 65 4.1 S 30 44 16 24 1016.0 - 0.0
15/11:00am 22.5 20.0 16.1 67 3.9 S 24 37 13 20 1016.3 - 0.0
15/10:30am 23.6 20.2 15.9 62 4.7 S 28 44 15 24 1016.6 - 0.0
15/10:00am 23.7 21.9 17.0 66 4.1 S 22 35 12 19 1016.5 - 0.0
15/09:30am 22.6 20.6 16.4 68 3.8 SSW 22 33 12 18 1016.6 - 0.0
15/09:00am 21.7 19.6 16.2 71 3.3 SSW 22 33 12 18 1016.6 1016.5 4.0
15/08:30am 21.3 19.3 16.5 74 2.9 S 22 32 12 17 1016.6 - 4.0
15/08:00am 19.7 18.1 16.0 79 2.2 SSW 19 26 10 14 1016.5 - 4.0
15/07:30am 18.9 16.7 15.9 83 1.8 SSW 22 35 12 19 1016.5 - 4.0
15/07:00am 18.6 16.0 15.8 84 1.7 SSW 24 35 13 19 1016.2 - 4.0
15/06:30am 18.6 16.5 15.3 81 1.9 SSW 20 28 11 15 1015.6 - 4.0
15/06:00am 19.1 17.2 15.2 78 2.3 SSW 19 28 10 15 1015.5 1015.4 4.0
15/05:30am 19.2 17.0 14.9 76 2.5 SSW 20 28 11 15 1014.9 - 4.0
15/05:00am 19.2 17.3 15.1 77 2.4 SSW 19 30 10 16 1014.7 - 4.0
15/04:30am 19.2 17.3 15.1 77 2.4 SSW 19 28 10 15 1014.6 - 4.0
15/04:00am 19.2 17.3 15.3 78 2.3 S 19 28 10 15 1014.5 - 4.0
15/03:30am 19.3 17.0 15.8 80 2.1 S 22 28 12 15 1014.5 - 4.0
15/03:00am 19.9 17.9 15.5 76 2.6 S 20 30 11 16 1014.3 1014.2 4.0
15/02:30am 19.9 17.5 15.5 76 2.6 S 22 32 12 17 1014.2 - 4.0
15/02:00am 19.9 17.5 15.5 76 2.6 S 22 32 12 17 1014.5 - 4.0
15/01:30am 20.1 17.9 15.9 77 2.5 S 22 33 12 18 1014.6 - 4.0
15/01:00am 20.3 18.5 15.9 76 2.6 S 20 30 11 16 1015.0 - 4.0
15/12:30am 20.5 18.3 15.9 75 2.7 S 22 28 12 15 1015.0 - 4.0
15/12:00am 20.3 19.0 15.9 76 2.6 S 17 28 9 15 1015.1 1015.0 4.0
 
Date/Time
EST
Temp
°C
App
Temp
°C
Dew
Point
Rel
Hum
%
Delta-T
°C
Wind Press
QNH
hPa
Press
MSL
hPa
Rain
since 9 am
mm
Dir
 
Spd
km/h
Gust
km/h
Spd
kts
Gust
kts
14/11:30pm 20.3 18.7 16.1 77 2.5 S 19 28 10 15 1015.4 - 4.0
14/11:00pm 20.3 18.7 16.1 77 2.5 S 19 26 10 14 1015.5 - 4.0
14/10:30pm 20.4 18.8 16.0 76 2.6 S 19 28 10 15 1015.8 - 4.0
14/10:00pm 20.4 18.9 16.2 77 2.5 S 19 30 10 16 1016.1 - 4.0
14/09:30pm 20.2 18.7 16.4 79 2.3 S 19 32 10 17 1015.8 - 4.0
14/09:00pm 20.6 18.5 16.2 76 2.6 S 22 30 12 16 1015.8 1015.7 4.0
14/08:30pm 20.9 18.8 16.3 75 2.8 S 22 33 12 18 1015.7 - 4.0
14/08:00pm 20.8 19.1 16.2 75 2.8 S 20 30 11 16 1015.3 - 4.0
14/07:30pm 20.7 19.2 16.7 78 2.4 S 20 28 11 15 1014.9 - 4.0
14/07:00pm 20.7 19.3 16.9 79 2.3 S 20 33 11 18 1014.4 - 4.0
14/06:30pm 21.3 19.8 16.7 75 2.8 S 20 28 11 15 1014.2 - 4.0
14/06:00pm 20.9 19.9 16.7 77 2.5 S 17 26 9 14 1013.9 1013.8 4.0
14/05:30pm 22.3 19.8 16.1 68 3.7 SSE 24 39 13 21 1013.7 - 4.0
14/05:00pm 20.8 19.9 16.8 78 2.4 S 17 28 9 15 1013.5 - 4.0
14/04:30pm 20.8 20.1 17.4 81 2.1 S 17 26 9 14 1013.0 - 4.0
14/04:00pm 21.8 18.9 17.0 74 2.9 S 28 39 15 21 1012.8 - 3.8
14/03:35pm 23.3 19.4 16.4 65 4.2 SE 32 50 17 27 1012.6 - 3.8
14/03:30pm 23.5 19.0 16.3 64 4.4 SE 35 50 19 27 1012.6 - 3.8
14/03:08pm 23.3 19.6 16.1 64 4.4 SE 30 48 16 26 1012.6 - 3.8
14/03:00pm 23.2 20.2 16.7 67 4.0 SE 28 43 15 23 1012.7 1012.6 3.8
14/02:30pm 22.4 20.6 16.9 71 3.4 SSE 22 43 12 23 1012.7 - 3.8
14/02:00pm 22.3 20.3 18.3 78 2.5 SSE 26 39 14 21 1012.7 - 3.8
14/01:47pm 21.4 22.0 19.5 89 1.2 S 15 24 8 13 1012.7 - 3.8
14/01:30pm 20.2 18.7 18.5 90 1.1 SSE 24 37 13 20 1013.0 - 3.8
14/01:00pm 20.5 20.1 19.0 91 0.9 SSE 19 28 10 15 1013.2 - 2.0
14/12:40pm 20.8 18.2 18.6 87 1.4 S 30 46 16 25 1013.3 - 1.4
14/12:30pm 22.4 20.5 19.4 83 1.9 S 28 41 15 22 1013.3 - 0.4
14/12:00pm 21.9 21.0 19.8 88 1.3 S 24 35 13 19 1013.8 1013.7 0.4
14/11:57am 21.6 19.7 19.3 87 1.5 S 28 46 15 25 1013.8 - 0.4
14/11:30am 22.9 21.2 18.2 75 2.9 S 24 35 13 19 1014.0 - 0.2
14/11:11am 22.5 21.6 19.1 81 2.2 S 22 35 12 19 1014.1 - 0.2
14/11:00am 21.4 21.0 18.8 85 1.6 S 19 28 10 15 1014.4 - 0.2
14/10:51am 21.5 21.0 19.1 86 1.5 S 20 28 11 15 1014.7 - 0.2
14/10:30am 21.8 21.2 18.4 81 2.1 SSW 19 30 10 16 1014.8 - 0.0
14/10:00am 22.0 20.9 18.6 81 2.1 SSW 22 35 12 19 1014.9 - 0.0
14/09:30am 22.4 20.3 18.0 76 2.7 S 26 33 14 18 1015.0 - 0.0
14/09:00am 21.8 19.2 17.8 78 2.5 S 28 44 15 24 1014.5 1014.4 3.2
14/08:30am 21.5 20.1 18.7 84 1.8 S 24 37 13 20 1014.5 - 3.2
14/08:00am 19.9 19.1 18.0 89 1.2 SSW 19 24 10 13 1014.8 - 3.2
14/07:56am 19.7 19.3 18.0 90 1.0 SSW 17 24 9 13 1014.9 - 3.2
14/07:30am 19.5 18.3 17.6 89 1.2 SSW 20 32 11 17 1014.6 - 2.8
14/07:23am 19.8 19.3 17.8 88 1.2 S 17 24 9 13 1014.7 - 2.8
14/07:00am 20.7 19.5 17.1 80 2.2 SSW 19 28 10 15 1014.5 - 2.8
14/06:30am 20.7 19.6 17.3 81 2.1 S 19 24 10 13 1014.1 - 2.8
14/06:00am 20.4 19.6 17.0 81 2.1 S 17 24 9 13 1014.0 1013.9 2.8
14/05:30am 20.7 19.9 17.1 80 2.2 SSW 17 26 9 14 1013.7 - 2.8
14/05:00am 20.6 19.5 17.2 81 2.1 SSW 19 32 10 17 1013.5 - 2.8
14/04:30am 20.5 19.2 17.3 82 2.0 S 20 26 11 14 1013.1 - 2.8
14/04:00am 20.8 19.7 17.2 80 2.2 S 19 26 10 14 1012.8 - 2.8
14/03:30am 21.0 20.2 17.2 79 2.3 S 17 24 9 13 1012.9 - 2.8
14/03:00am 21.1 20.1 17.5 80 2.2 SSW 19 28 10 15 1013.0 1012.9 2.8
14/02:30am 21.1 20.9 17.7 81 2.1 S 15 24 8 13 1013.0 - 2.8
14/02:00am 21.2 21.5 17.8 81 2.1 S 13 20 7 11 1013.5 - 2.8
14/01:30am 21.3 21.6 17.9 81 2.1 S 13 17 7 9 1013.7 - 2.8
14/01:00am 21.0 21.3 18.0 83 1.9 SSW 13 19 7 10 1014.1 - 2.8
14/12:30am 21.0 21.4 18.2 84 1.7 S 13 17 7 9 1014.2 - 2.8
14/12:00am 21.1 21.2 18.3 84 1.7 SSW 15 20 8 11 1014.8 1014.7 2.8
 
Date/Time
EST
Temp
°C
App
Temp
°C
Dew
Point
Rel
Hum
%
Delta-T
°C
Wind Press
QNH
hPa
Press
MSL
hPa
Rain
since 9 am
mm
Dir
 
Spd
km/h
Gust
km/h
Spd
kts
Gust
kts
13/11:30pm 20.8 21.3 18.4 86 1.5 S 13 20 7 11 1014.4 - 2.8
13/11:00pm 20.7 21.3 18.5 87 1.4 S 13 17 7 9 1014.9 - 2.8
13/10:30pm 21.0 21.2 18.6 86 1.5 SSW 15 20 8 11 1015.3 - 2.8
13/10:00pm 20.8 21.0 18.6 87 1.4 SSW 15 20 8 11 1015.5 - 2.8
13/09:30pm 20.8 21.0 18.6 87 1.4 SSW 15 19 8 10 1015.1 - 2.8
13/09:00pm 20.4 21.8 18.7 90 1.1 S 9 15 5 8 1015.2 1015.1 2.8
13/08:30pm 20.4 21.4 19.4 94 0.6 WSW 13 19 7 10 1015.8 - 2.8
13/08:05pm 20.3 22.3 19.1 93 0.8 S 7 9 4 5 1015.1 - 2.8
13/08:00pm 20.3 22.3 19.1 93 0.8 S 7 9 4 5 1015.0 - 2.8
13/07:30pm 20.3 22.4 19.0 92 0.8 S 6 7 3 4 1014.9 - 2.2
13/07:19pm 20.3 22.4 19.0 92 0.8 SSE 6 9 3 5 1014.9 - 2.0
13/07:13pm 20.5 23.1 19.2 92 0.8 SSE 4 7 2 4 1014.8 - 1.6
13/07:00pm 20.4 23.5 18.7 90 1.1 CALM 0 4 0 2 1014.8 - 1.6
13/06:30pm 20.4 21.9 18.9 91 0.9 SW 9 13 5 7 1014.7 - 1.0
13/06:24pm 20.4 21.5 18.9 91 0.9 SW 11 13 6 7 1014.7 - 0.6
13/06:00pm 20.4 21.4 18.7 90 1.1 SW 11 15 6 8 1014.1 1014.0 0.4
13/05:30pm 20.6 21.9 18.5 88 1.3 SW 9 15 5 8 1013.7 - 0.4

Other Formats:

Comma delimited format used in spreadsheet applications
http://www.bom.gov.au/fwo/IDN60801/IDN60801.94592.axf

JavaScript Object Notation format (JSON) in row-major order
http://www.bom.gov.au/fwo/IDN60801/IDN60801.94592.json